sensor_id;sensor_type;location;lat;lon;timestamp;P1;durP1;ratioP1;P2;durP2;ratioP2
18520;SDS011;9390;51.244;6.982;2023-11-19T00:02:12;9.77;;;4.72;;
18520;SDS011;9390;51.244;6.982;2023-11-19T00:04:44;9.23;;;4.70;;
18520;SDS011;9390;51.244;6.982;2023-11-19T00:07:15;11.95;;;5.35;;
18520;SDS011;9390;51.244;6.982;2023-11-19T00:09:48;13.27;;;4.70;;
18520;SDS011;9390;51.244;6.982;2023-11-19T00:12:20;8.02;;;3.47;;
18520;SDS011;9390;51.244;6.982;2023-11-19T00:14:52;9.80;;;4.07;;
18520;SDS011;9390;51.244;6.982;2023-11-19T00:17:24;9.32;;;3.70;;
18520;SDS011;9390;51.244;6.982;2023-11-19T00:19:55;11.07;;;3.38;;
18520;SDS011;9390;51.244;6.982;2023-11-19T00:22:26;7.25;;;3.28;;
18520;SDS011;9390;51.244;6.982;2023-11-19T00:24:59;7.32;;;3.55;;
18520;SDS011;9390;51.244;6.982;2023-11-19T00:27:31;10.48;;;3.92;;
18520;SDS011;9390;51.244;6.982;2023-11-19T00:30:02;9.27;;;4.07;;
18520;SDS011;9390;51.244;6.982;2023-11-19T00:32:35;8.60;;;4.15;;
18520;SDS011;9390;51.244;6.982;2023-11-19T00:35:08;8.77;;;4.00;;
18520;SDS011;9390;51.244;6.982;2023-11-19T00:37:40;8.93;;;3.72;;
18520;SDS011;9390;51.244;6.982;2023-11-19T00:40:14;11.10;;;3.83;;
18520;SDS011;9390;51.244;6.982;2023-11-19T00:42:46;11.00;;;4.30;;
18520;SDS011;9390;51.244;6.982;2023-11-19T00:45:17;9.60;;;4.00;;
18520;SDS011;9390;51.244;6.982;2023-11-19T00:47:48;8.27;;;4.25;;
18520;SDS011;9390;51.244;6.982;2023-11-19T00:50:20;10.43;;;4.30;;
18520;SDS011;9390;51.244;6.982;2023-11-19T00:52:52;9.07;;;4.15;;
18520;SDS011;9390;51.244;6.982;2023-11-19T00:55:25;8.80;;;4.18;;
18520;SDS011;9390;51.244;6.982;2023-11-19T00:57:57;8.63;;;4.03;;
18520;SDS011;9390;51.244;6.982;2023-11-19T01:00:28;8.77;;;4.05;;
18520;SDS011;9390;51.244;6.982;2023-11-19T01:03:02;10.07;;;4.32;;
18520;SDS011;9390;51.244;6.982;2023-11-19T01:05:33;14.82;;;4.68;;
18520;SDS011;9390;51.244;6.982;2023-11-19T01:08:05;10.48;;;4.40;;
18520;SDS011;9390;51.244;6.982;2023-11-19T01:10:37;12.15;;;4.03;;
18520;SDS011;9390;51.244;6.982;2023-11-19T01:13:09;9.68;;;4.03;;
18520;SDS011;9390;51.244;6.982;2023-11-19T01:15:40;12.25;;;4.38;;
18520;SDS011;9390;51.244;6.982;2023-11-19T01:18:12;10.00;;;4.28;;
18520;SDS011;9390;51.244;6.982;2023-11-19T01:20:43;9.60;;;4.13;;
18520;SDS011;9390;51.244;6.982;2023-11-19T01:23:15;11.20;;;4.85;;
18520;SDS011;9390;51.244;6.982;2023-11-19T01:25:47;10.15;;;4.53;;
18520;SDS011;9390;51.244;6.982;2023-11-19T01:28:19;11.75;;;4.85;;
18520;SDS011;9390;51.244;6.982;2023-11-19T01:30:50;9.93;;;4.43;;
18520;SDS011;9390;51.244;6.982;2023-11-19T01:33:21;12.35;;;3.95;;
18520;SDS011;9390;51.244;6.982;2023-11-19T01:35:53;10.45;;;4.28;;
18520;SDS011;9390;51.244;6.982;2023-11-19T01:38:24;8.55;;;3.97;;
18520;SDS011;9390;51.244;6.982;2023-11-19T01:40:57;8.25;;;3.65;;
18520;SDS011;9390;51.244;6.982;2023-11-19T01:43:32;9.30;;;4.38;;
18520;SDS011;9390;51.244;6.982;2023-11-19T01:46:05;7.57;;;3.55;;
18520;SDS011;9390;51.244;6.982;2023-11-19T01:48:40;9.20;;;4.00;;
18520;SDS011;9390;51.244;6.982;2023-11-19T01:51:13;11.32;;;3.50;;
18520;SDS011;9390;51.244;6.982;2023-11-19T01:53:46;8.45;;;3.10;;
18520;SDS011;9390;51.244;6.982;2023-11-19T01:56:19;8.13;;;3.20;;
18520;SDS011;9390;51.244;6.982;2023-11-19T02:01:22;7.38;;;2.90;;
18520;SDS011;9390;51.244;6.982;2023-11-19T02:03:54;6.78;;;2.95;;
18520;SDS011;9390;51.244;6.982;2023-11-19T02:06:26;8.73;;;2.92;;
18520;SDS011;9390;51.244;6.982;2023-11-19T02:08:59;5.90;;;2.50;;
18520;SDS011;9390;51.244;6.982;2023-11-19T02:11:31;7.63;;;2.47;;
18520;SDS011;9390;51.244;6.982;2023-11-19T02:14:03;6.30;;;2.25;;
18520;SDS011;9390;51.244;6.982;2023-11-19T02:16:34;6.72;;;2.22;;
18520;SDS011;9390;51.244;6.982;2023-11-19T02:19:06;7.65;;;2.50;;
18520;SDS011;9390;51.244;6.982;2023-11-19T02:21:38;7.10;;;2.17;;
18520;SDS011;9390;51.244;6.982;2023-11-19T02:24:09;6.13;;;2.30;;
18520;SDS011;9390;51.244;6.982;2023-11-19T02:26:44;4.43;;;1.88;;
18520;SDS011;9390;51.244;6.982;2023-11-19T02:29:19;7.70;;;2.60;;
18520;SDS011;9390;51.244;6.982;2023-11-19T02:31:51;8.75;;;2.10;;
18520;SDS011;9390;51.244;6.982;2023-11-19T02:34:24;7.57;;;2.40;;
18520;SDS011;9390;51.244;6.982;2023-11-19T02:36:56;6.68;;;2.50;;
18520;SDS011;9390;51.244;6.982;2023-11-19T02:39:27;8.45;;;2.90;;
18520;SDS011;9390;51.244;6.982;2023-11-19T02:41:59;11.00;;;2.75;;
18520;SDS011;9390;51.244;6.982;2023-11-19T02:44:31;9.57;;;2.80;;
18520;SDS011;9390;51.244;6.982;2023-11-19T02:47:05;8.80;;;2.92;;
18520;SDS011;9390;51.244;6.982;2023-11-19T02:49:38;8.95;;;3.00;;
18520;SDS011;9390;51.244;6.982;2023-11-19T02:52:09;11.95;;;3.10;;
18520;SDS011;9390;51.244;6.982;2023-11-19T02:54:41;13.93;;;2.53;;
18520;SDS011;9390;51.244;6.982;2023-11-19T02:57:13;11.77;;;3.10;;
18520;SDS011;9390;51.244;6.982;2023-11-19T02:59:46;11.48;;;3.20;;
18520;SDS011;9390;51.244;6.982;2023-11-19T03:02:18;12.55;;;3.63;;
18520;SDS011;9390;51.244;6.982;2023-11-19T03:04:49;19.35;;;3.15;;
18520;SDS011;9390;51.244;6.982;2023-11-19T03:07:21;8.25;;;2.92;;
18520;SDS011;9390;51.244;6.982;2023-11-19T03:09:52;13.38;;;3.35;;
18520;SDS011;9390;51.244;6.982;2023-11-19T03:12:24;16.17;;;3.13;;
18520;SDS011;9390;51.244;6.982;2023-11-19T03:14:57;10.30;;;3.22;;
18520;SDS011;9390;51.244;6.982;2023-11-19T03:17:29;17.55;;;3.60;;
18520;SDS011;9390;51.244;6.982;2023-11-19T03:20:00;14.88;;;3.17;;
18520;SDS011;9390;51.244;6.982;2023-11-19T03:22:32;9.07;;;3.15;;
18520;SDS011;9390;51.244;6.982;2023-11-19T03:25:04;12.63;;;3.10;;
18520;SDS011;9390;51.244;6.982;2023-11-19T03:27:38;17.30;;;3.53;;
18520;SDS011;9390;51.244;6.982;2023-11-19T03:30:13;18.65;;;3.53;;
18520;SDS011;9390;51.244;6.982;2023-11-19T03:32:44;18.33;;;3.25;;
18520;SDS011;9390;51.244;6.982;2023-11-19T03:35:15;11.15;;;2.90;;
18520;SDS011;9390;51.244;6.982;2023-11-19T03:37:47;13.50;;;3.17;;
18520;SDS011;9390;51.244;6.982;2023-11-19T03:40:18;15.93;;;3.80;;
18520;SDS011;9390;51.244;6.982;2023-11-19T03:42:50;13.05;;;3.10;;
18520;SDS011;9390;51.244;6.982;2023-11-19T03:45:22;20.52;;;4.13;;
18520;SDS011;9390;51.244;6.982;2023-11-19T03:47:54;13.77;;;3.47;;
18520;SDS011;9390;51.244;6.982;2023-11-19T03:50:26;13.90;;;3.20;;
18520;SDS011;9390;51.244;6.982;2023-11-19T03:52:57;19.58;;;3.88;;
18520;SDS011;9390;51.244;6.982;2023-11-19T03:55:30;17.95;;;2.90;;
18520;SDS011;9390;51.244;6.982;2023-11-19T03:58:02;20.65;;;2.95;;
18520;SDS011;9390;51.244;6.982;2023-11-19T04:00:35;17.73;;;3.08;;
18520;SDS011;9390;51.244;6.982;2023-11-19T04:03:06;15.88;;;3.65;;
18520;SDS011;9390;51.244;6.982;2023-11-19T04:05:38;12.45;;;3.30;;
18520;SDS011;9390;51.244;6.982;2023-11-19T04:08:09;22.08;;;3.05;;
18520;SDS011;9390;51.244;6.982;2023-11-19T04:10:41;16.40;;;3.03;;
18520;SDS011;9390;51.244;6.982;2023-11-19T04:13:12;23.35;;;3.78;;
18520;SDS011;9390;51.244;6.982;2023-11-19T04:15:45;16.00;;;3.38;;
18520;SDS011;9390;51.244;6.982;2023-11-19T04:18:16;21.17;;;3.78;;
18520;SDS011;9390;51.244;6.982;2023-11-19T04:20:48;21.23;;;3.40;;
18520;SDS011;9390;51.244;6.982;2023-11-19T04:23:19;21.63;;;3.50;;
18520;SDS011;9390;51.244;6.982;2023-11-19T04:25:51;20.10;;;3.80;;
18520;SDS011;9390;51.244;6.982;2023-11-19T04:28:23;30.25;;;4.10;;
18520;SDS011;9390;51.244;6.982;2023-11-19T04:30:58;12.10;;;2.83;;
18520;SDS011;9390;51.244;6.982;2023-11-19T04:33:29;14.60;;;3.10;;
18520;SDS011;9390;51.244;6.982;2023-11-19T04:36:01;24.75;;;3.42;;
18520;SDS011;9390;51.244;6.982;2023-11-19T04:38:33;19.07;;;3.10;;
18520;SDS011;9390;51.244;6.982;2023-11-19T04:41:05;15.77;;;3.03;;
18520;SDS011;9390;51.244;6.982;2023-11-19T04:43:36;15.82;;;3.40;;
18520;SDS011;9390;51.244;6.982;2023-11-19T04:46:10;30.92;;;3.63;;
18520;SDS011;9390;51.244;6.982;2023-11-19T04:48:41;27.15;;;3.45;;
18520;SDS011;9390;51.244;6.982;2023-11-19T04:51:13;24.23;;;3.30;;
18520;SDS011;9390;51.244;6.982;2023-11-19T04:53:44;25.52;;;3.40;;
18520;SDS011;9390;51.244;6.982;2023-11-19T04:56:16;16.98;;;2.92;;
18520;SDS011;9390;51.244;6.982;2023-11-19T04:58:49;26.83;;;4.05;;
18520;SDS011;9390;51.244;6.982;2023-11-19T05:01:22;16.10;;;3.00;;
18520;SDS011;9390;51.244;6.982;2023-11-19T05:03:53;19.05;;;3.85;;
18520;SDS011;9390;51.244;6.982;2023-11-19T05:06:25;23.88;;;3.33;;
18520;SDS011;9390;51.244;6.982;2023-11-19T05:08:58;19.83;;;3.63;;
18520;SDS011;9390;51.244;6.982;2023-11-19T05:11:31;18.63;;;3.45;;
18520;SDS011;9390;51.244;6.982;2023-11-19T05:14:02;23.65;;;3.58;;
18520;SDS011;9390;51.244;6.982;2023-11-19T05:16:37;20.37;;;3.33;;
18520;SDS011;9390;51.244;6.982;2023-11-19T05:19:10;26.35;;;3.28;;
18520;SDS011;9390;51.244;6.982;2023-11-19T05:21:41;22.15;;;3.65;;
18520;SDS011;9390;51.244;6.982;2023-11-19T05:24:13;22.98;;;3.15;;
18520;SDS011;9390;51.244;6.982;2023-11-19T05:26:44;27.73;;;3.80;;
18520;SDS011;9390;51.244;6.982;2023-11-19T05:29:16;20.30;;;3.63;;
18520;SDS011;9390;51.244;6.982;2023-11-19T05:31:49;30.45;;;3.53;;
18520;SDS011;9390;51.244;6.982;2023-11-19T05:34:21;19.90;;;3.13;;
18520;SDS011;9390;51.244;6.982;2023-11-19T05:36:52;12.52;;;3.10;;
18520;SDS011;9390;51.244;6.982;2023-11-19T05:39:23;28.17;;;3.70;;
18520;SDS011;9390;51.244;6.982;2023-11-19T05:41:55;31.05;;;4.70;;
18520;SDS011;9390;51.244;6.982;2023-11-19T05:44:26;19.23;;;2.95;;
18520;SDS011;9390;51.244;6.982;2023-11-19T05:46:59;31.60;;;4.18;;
18520;SDS011;9390;51.244;6.982;2023-11-19T05:49:30;25.88;;;3.65;;
18520;SDS011;9390;51.244;6.982;2023-11-19T05:52:02;23.30;;;3.72;;
18520;SDS011;9390;51.244;6.982;2023-11-19T05:54:37;19.60;;;3.75;;
18520;SDS011;9390;51.244;6.982;2023-11-19T05:57:08;24.00;;;3.28;;
18520;SDS011;9390;51.244;6.982;2023-11-19T05:59:40;26.08;;;3.42;;
18520;SDS011;9390;51.244;6.982;2023-11-19T06:02:13;24.13;;;4.03;;
18520;SDS011;9390;51.244;6.982;2023-11-19T06:04:44;22.35;;;3.97;;
18520;SDS011;9390;51.244;6.982;2023-11-19T06:07:17;20.45;;;3.47;;
18520;SDS011;9390;51.244;6.982;2023-11-19T06:09:49;22.70;;;3.65;;
18520;SDS011;9390;51.244;6.982;2023-11-19T06:12:22;23.27;;;3.90;;
18520;SDS011;9390;51.244;6.982;2023-11-19T06:14:53;28.38;;;3.55;;
18520;SDS011;9390;51.244;6.982;2023-11-19T06:17:26;24.25;;;3.20;;
18520;SDS011;9390;51.244;6.982;2023-11-19T06:19:57;22.17;;;2.90;;
18520;SDS011;9390;51.244;6.982;2023-11-19T06:22:28;26.02;;;3.63;;
18520;SDS011;9390;51.244;6.982;2023-11-19T06:25:00;26.45;;;3.83;;
18520;SDS011;9390;51.244;6.982;2023-11-19T06:27:31;21.55;;;3.22;;
18520;SDS011;9390;51.244;6.982;2023-11-19T06:30:03;28.70;;;3.85;;
18520;SDS011;9390;51.244;6.982;2023-11-19T06:32:37;26.50;;;3.85;;
18520;SDS011;9390;51.244;6.982;2023-11-19T06:35:08;17.60;;;2.67;;
18520;SDS011;9390;51.244;6.982;2023-11-19T06:37:40;23.58;;;3.42;;
18520;SDS011;9390;51.244;6.982;2023-11-19T06:40:12;24.92;;;3.30;;
18520;SDS011;9390;51.244;6.982;2023-11-19T06:42:45;22.08;;;3.50;;
18520;SDS011;9390;51.244;6.982;2023-11-19T06:45:17;27.38;;;3.58;;
18520;SDS011;9390;51.244;6.982;2023-11-19T06:47:49;27.70;;;3.25;;
18520;SDS011;9390;51.244;6.982;2023-11-19T06:50:21;17.58;;;3.35;;
18520;SDS011;9390;51.244;6.982;2023-11-19T06:52:53;23.90;;;4.30;;
18520;SDS011;9390;51.244;6.982;2023-11-19T06:55:25;27.05;;;3.60;;
18520;SDS011;9390;51.244;6.982;2023-11-19T06:57:59;33.53;;;4.43;;
18520;SDS011;9390;51.244;6.982;2023-11-19T07:00:31;20.05;;;3.15;;
18520;SDS011;9390;51.244;6.982;2023-11-19T07:03:04;27.83;;;4.03;;
18520;SDS011;9390;51.244;6.982;2023-11-19T07:05:38;30.83;;;4.50;;
18520;SDS011;9390;51.244;6.982;2023-11-19T07:08:09;26.73;;;3.20;;
18520;SDS011;9390;51.244;6.982;2023-11-19T07:10:41;31.50;;;4.85;;
18520;SDS011;9390;51.244;6.982;2023-11-19T07:13:12;17.25;;;3.50;;
18520;SDS011;9390;51.244;6.982;2023-11-19T07:15:43;32.53;;;4.03;;
18520;SDS011;9390;51.244;6.982;2023-11-19T07:18:16;25.55;;;3.90;;
18520;SDS011;9390;51.244;6.982;2023-11-19T07:20:48;34.35;;;3.97;;
18520;SDS011;9390;51.244;6.982;2023-11-19T07:23:19;31.58;;;3.55;;
18520;SDS011;9390;51.244;6.982;2023-11-19T07:25:51;32.10;;;3.77;;
18520;SDS011;9390;51.244;6.982;2023-11-19T07:28:23;25.95;;;3.30;;
18520;SDS011;9390;51.244;6.982;2023-11-19T07:30:54;37.45;;;4.93;;
18520;SDS011;9390;51.244;6.982;2023-11-19T07:33:28;27.87;;;3.90;;
18520;SDS011;9390;51.244;6.982;2023-11-19T07:35:59;30.40;;;3.90;;
18520;SDS011;9390;51.244;6.982;2023-11-19T07:38:31;23.23;;;3.38;;
18520;SDS011;9390;51.244;6.982;2023-11-19T07:41:02;27.85;;;3.42;;
18520;SDS011;9390;51.244;6.982;2023-11-19T07:43:35;30.50;;;4.93;;
18520;SDS011;9390;51.244;6.982;2023-11-19T07:46:10;27.25;;;4.03;;
18520;SDS011;9390;51.244;6.982;2023-11-19T07:48:44;19.15;;;3.33;;
18520;SDS011;9390;51.244;6.982;2023-11-19T07:51:17;39.45;;;4.07;;
18520;SDS011;9390;51.244;6.982;2023-11-19T07:53:48;22.35;;;3.75;;
18520;SDS011;9390;51.244;6.982;2023-11-19T07:56:20;25.75;;;3.08;;
18520;SDS011;9390;51.244;6.982;2023-11-19T07:58:51;35.95;;;4.82;;
18520;SDS011;9390;51.244;6.982;2023-11-19T08:01:22;29.23;;;3.70;;
18520;SDS011;9390;51.244;6.982;2023-11-19T08:03:55;31.17;;;4.25;;
18520;SDS011;9390;51.244;6.982;2023-11-19T08:06:27;30.23;;;4.57;;
18520;SDS011;9390;51.244;6.982;2023-11-19T08:08:58;36.78;;;4.68;;
18520;SDS011;9390;51.244;6.982;2023-11-19T08:11:30;31.80;;;4.35;;
18520;SDS011;9390;51.244;6.982;2023-11-19T08:14:01;25.10;;;3.60;;
18520;SDS011;9390;51.244;6.982;2023-11-19T08:16:33;31.40;;;3.67;;
18520;SDS011;9390;51.244;6.982;2023-11-19T08:19:05;24.20;;;3.92;;
18520;SDS011;9390;51.244;6.982;2023-11-19T08:21:38;25.10;;;3.40;;
18520;SDS011;9390;51.244;6.982;2023-11-19T08:24:09;21.67;;;3.10;;
18520;SDS011;9390;51.244;6.982;2023-11-19T08:26:41;35.45;;;5.32;;
18520;SDS011;9390;51.244;6.982;2023-11-19T08:29:12;22.25;;;3.60;;
18520;SDS011;9390;51.244;6.982;2023-11-19T08:31:44;29.60;;;4.35;;
18520;SDS011;9390;51.244;6.982;2023-11-19T08:34:17;30.75;;;4.28;;
18520;SDS011;9390;51.244;6.982;2023-11-19T08:36:49;22.67;;;3.55;;
18520;SDS011;9390;51.244;6.982;2023-11-19T08:39:21;24.13;;;4.07;;
18520;SDS011;9390;51.244;6.982;2023-11-19T08:41:52;26.83;;;3.65;;
18520;SDS011;9390;51.244;6.982;2023-11-19T08:44:25;22.23;;;4.00;;
18520;SDS011;9390;51.244;6.982;2023-11-19T08:46:57;23.88;;;4.70;;
18520;SDS011;9390;51.244;6.982;2023-11-19T08:49:30;23.08;;;3.95;;
18520;SDS011;9390;51.244;6.982;2023-11-19T08:52:01;30.92;;;3.40;;
18520;SDS011;9390;51.244;6.982;2023-11-19T08:54:32;30.55;;;3.60;;
18520;SDS011;9390;51.244;6.982;2023-11-19T08:57:04;28.02;;;5.47;;
18520;SDS011;9390;51.244;6.982;2023-11-19T08:59:37;23.90;;;3.33;;
18520;SDS011;9390;51.244;6.982;2023-11-19T09:02:08;20.90;;;2.92;;
18520;SDS011;9390;51.244;6.982;2023-11-19T09:04:41;25.60;;;3.53;;
18520;SDS011;9390;51.244;6.982;2023-11-19T09:07:12;20.08;;;3.33;;
18520;SDS011;9390;51.244;6.982;2023-11-19T09:09:44;20.20;;;4.05;;
18520;SDS011;9390;51.244;6.982;2023-11-19T09:12:15;25.27;;;3.03;;
18520;SDS011;9390;51.244;6.982;2023-11-19T09:14:47;30.23;;;4.75;;
18520;SDS011;9390;51.244;6.982;2023-11-19T09:17:19;18.40;;;3.60;;
18520;SDS011;9390;51.244;6.982;2023-11-19T09:19:52;20.33;;;2.70;;
18520;SDS011;9390;51.244;6.982;2023-11-19T09:22:23;24.90;;;2.88;;
18520;SDS011;9390;51.244;6.982;2023-11-19T09:24:54;27.77;;;3.13;;
18520;SDS011;9390;51.244;6.982;2023-11-19T09:27:26;21.17;;;4.38;;
18520;SDS011;9390;51.244;6.982;2023-11-19T09:29:57;26.83;;;2.97;;
18520;SDS011;9390;51.244;6.982;2023-11-19T09:32:29;19.77;;;2.65;;
18520;SDS011;9390;51.244;6.982;2023-11-19T09:35:02;18.52;;;3.20;;
18520;SDS011;9390;51.244;6.982;2023-11-19T09:37:33;25.85;;;3.70;;
18520;SDS011;9390;51.244;6.982;2023-11-19T09:40:05;22.50;;;3.95;;
18520;SDS011;9390;51.244;6.982;2023-11-19T09:42:42;28.90;;;3.95;;
18520;SDS011;9390;51.244;6.982;2023-11-19T09:45:15;20.55;;;3.47;;
18520;SDS011;9390;51.244;6.982;2023-11-19T09:50:20;22.58;;;3.08;;
18520;SDS011;9390;51.244;6.982;2023-11-19T09:52:52;21.50;;;3.08;;
18520;SDS011;9390;51.244;6.982;2023-11-19T09:55:23;26.33;;;3.83;;
18520;SDS011;9390;51.244;6.982;2023-11-19T09:57:55;28.38;;;3.63;;
18520;SDS011;9390;51.244;6.982;2023-11-19T10:00:30;24.75;;;3.63;;
18520;SDS011;9390;51.244;6.982;2023-11-19T10:03:01;20.48;;;3.63;;
18520;SDS011;9390;51.244;6.982;2023-11-19T10:05:36;26.55;;;3.15;;
18520;SDS011;9390;51.244;6.982;2023-11-19T10:08:08;23.38;;;3.65;;
18520;SDS011;9390;51.244;6.982;2023-11-19T10:10:41;21.40;;;3.00;;
18520;SDS011;9390;51.244;6.982;2023-11-19T10:13:12;24.63;;;3.25;;
18520;SDS011;9390;51.244;6.982;2023-11-19T10:15:44;20.98;;;4.68;;
18520;SDS011;9390;51.244;6.982;2023-11-19T10:18:16;19.58;;;2.70;;
18520;SDS011;9390;51.244;6.982;2023-11-19T10:20:49;24.23;;;3.33;;
18520;SDS011;9390;51.244;6.982;2023-11-19T10:23:21;20.98;;;3.40;;
18520;SDS011;9390;51.244;6.982;2023-11-19T10:25:52;18.48;;;3.00;;
18520;SDS011;9390;51.244;6.982;2023-11-19T10:28:24;24.45;;;4.22;;
18520;SDS011;9390;51.244;6.982;2023-11-19T10:30:56;20.88;;;3.13;;
18520;SDS011;9390;51.244;6.982;2023-11-19T10:33:27;25.85;;;4.70;;
18520;SDS011;9390;51.244;6.982;2023-11-19T10:36:02;25.48;;;3.22;;
18520;SDS011;9390;51.244;6.982;2023-11-19T10:41:05;24.75;;;3.90;;
18520;SDS011;9390;51.244;6.982;2023-11-19T10:43:42;23.38;;;2.78;;
18520;SDS011;9390;51.244;6.982;2023-11-19T10:46:15;21.63;;;4.40;;
18520;SDS011;9390;51.244;6.982;2023-11-19T10:48:51;22.60;;;3.60;;
18520;SDS011;9390;51.244;6.982;2023-11-19T10:51:23;20.95;;;3.40;;
18520;SDS011;9390;51.244;6.982;2023-11-19T10:53:54;28.02;;;3.17;;
18520;SDS011;9390;51.244;6.982;2023-11-19T10:56:29;14.40;;;3.10;;
18520;SDS011;9390;51.244;6.982;2023-11-19T10:59:01;27.25;;;3.50;;
18520;SDS011;9390;51.244;6.982;2023-11-19T11:01:34;22.42;;;2.92;;
18520;SDS011;9390;51.244;6.982;2023-11-19T11:04:10;27.80;;;3.92;;
18520;SDS011;9390;51.244;6.982;2023-11-19T11:06:46;24.17;;;3.15;;
18520;SDS011;9390;51.244;6.982;2023-11-19T11:09:18;14.93;;;2.72;;
18520;SDS011;9390;51.244;6.982;2023-11-19T11:11:49;18.08;;;2.80;;
18520;SDS011;9390;51.244;6.982;2023-11-19T11:14:22;22.00;;;2.92;;
18520;SDS011;9390;51.244;6.982;2023-11-19T11:16:55;24.15;;;2.95;;
18520;SDS011;9390;51.244;6.982;2023-11-19T11:19:27;17.67;;;3.65;;
18520;SDS011;9390;51.244;6.982;2023-11-19T11:22:00;18.25;;;3.50;;
18520;SDS011;9390;51.244;6.982;2023-11-19T11:24:37;20.40;;;3.15;;
18520;SDS011;9390;51.244;6.982;2023-11-19T11:30:28;22.80;;;3.40;;
18520;SDS011;9390;51.244;6.982;2023-11-19T11:33:06;18.92;;;2.78;;
18520;SDS011;9390;51.244;6.982;2023-11-19T11:35:50;22.58;;;2.85;;
18520;SDS011;9390;51.244;6.982;2023-11-19T11:38:28;24.67;;;3.35;;
18520;SDS011;9390;51.244;6.982;2023-11-19T11:41:15;21.50;;;3.55;;
18520;SDS011;9390;51.244;6.982;2023-11-19T11:43:49;29.73;;;4.18;;
18520;SDS011;9390;51.244;6.982;2023-11-19T11:49:29;16.33;;;2.88;;
18520;SDS011;9390;51.244;6.982;2023-11-19T11:52:01;17.23;;;2.97;;
18520;SDS011;9390;51.244;6.982;2023-11-19T11:57:07;15.73;;;2.88;;
18520;SDS011;9390;51.244;6.982;2023-11-19T11:59:43;22.45;;;3.17;;
18520;SDS011;9390;51.244;6.982;2023-11-19T12:02:17;20.77;;;2.92;;
18520;SDS011;9390;51.244;6.982;2023-11-19T12:04:51;22.15;;;3.17;;
18520;SDS011;9390;51.244;6.982;2023-11-19T12:07:23;17.60;;;2.28;;
18520;SDS011;9390;51.244;6.982;2023-11-19T12:10:06;26.70;;;4.60;;
18520;SDS011;9390;51.244;6.982;2023-11-19T12:12:39;14.82;;;2.53;;
18520;SDS011;9390;51.244;6.982;2023-11-19T12:15:11;18.77;;;3.08;;
18520;SDS011;9390;51.244;6.982;2023-11-19T12:20:20;21.45;;;2.55;;
18520;SDS011;9390;51.244;6.982;2023-11-19T12:22:53;17.50;;;2.10;;
18520;SDS011;9390;51.244;6.982;2023-11-19T12:25:26;19.00;;;2.70;;
18520;SDS011;9390;51.244;6.982;2023-11-19T12:30:30;12.75;;;2.35;;
18520;SDS011;9390;51.244;6.982;2023-11-19T12:33:07;14.98;;;2.47;;
18520;SDS011;9390;51.244;6.982;2023-11-19T12:35:39;14.75;;;2.72;;
18520;SDS011;9390;51.244;6.982;2023-11-19T12:38:18;13.27;;;2.42;;
18520;SDS011;9390;51.244;6.982;2023-11-19T12:41:03;21.13;;;2.85;;
18520;SDS011;9390;51.244;6.982;2023-11-19T12:43:35;14.98;;;2.70;;
18520;SDS011;9390;51.244;6.982;2023-11-19T12:46:16;15.30;;;3.20;;
18520;SDS011;9390;51.244;6.982;2023-11-19T12:48:48;22.88;;;2.47;;
18520;SDS011;9390;51.244;6.982;2023-11-19T12:51:20;22.05;;;2.42;;
18520;SDS011;9390;51.244;6.982;2023-11-19T12:53:52;12.70;;;2.22;;
18520;SDS011;9390;51.244;6.982;2023-11-19T12:56:25;16.83;;;3.30;;
18520;SDS011;9390;51.244;6.982;2023-11-19T12:58:57;15.02;;;1.92;;
18520;SDS011;9390;51.244;6.982;2023-11-19T13:01:28;14.35;;;2.08;;
18520;SDS011;9390;51.244;6.982;2023-11-19T13:04:00;22.67;;;3.00;;
18520;SDS011;9390;51.244;6.982;2023-11-19T13:06:32;13.23;;;2.45;;
18520;SDS011;9390;51.244;6.982;2023-11-19T13:09:03;12.80;;;2.17;;
18520;SDS011;9390;51.244;6.982;2023-11-19T13:11:36;11.00;;;1.95;;
18520;SDS011;9390;51.244;6.982;2023-11-19T13:14:10;11.82;;;1.92;;
18520;SDS011;9390;51.244;6.982;2023-11-19T13:16:42;12.95;;;2.33;;
18520;SDS011;9390;51.244;6.982;2023-11-19T13:21:48;13.23;;;2.92;;
18520;SDS011;9390;51.244;6.982;2023-11-19T13:24:20;15.35;;;2.58;;
18520;SDS011;9390;51.244;6.982;2023-11-19T13:26:53;17.05;;;2.60;;
18520;SDS011;9390;51.244;6.982;2023-11-19T13:29:25;11.32;;;2.35;;
18520;SDS011;9390;51.244;6.982;2023-11-19T13:31:57;14.68;;;2.40;;
18520;SDS011;9390;51.244;6.982;2023-11-19T13:34:30;13.07;;;2.50;;
18520;SDS011;9390;51.244;6.982;2023-11-19T13:37:01;21.02;;;2.63;;
18520;SDS011;9390;51.244;6.982;2023-11-19T13:39:32;13.63;;;2.72;;
18520;SDS011;9390;51.244;6.982;2023-11-19T13:42:05;13.30;;;2.17;;
18520;SDS011;9390;51.244;6.982;2023-11-19T13:44:37;17.63;;;3.50;;
18520;SDS011;9390;51.244;6.982;2023-11-19T13:47:09;15.25;;;2.47;;
18520;SDS011;9390;51.244;6.982;2023-11-19T13:49:40;17.05;;;2.53;;
18520;SDS011;9390;51.244;6.982;2023-11-19T13:52:12;12.15;;;2.92;;
18520;SDS011;9390;51.244;6.982;2023-11-19T13:54:43;14.98;;;2.90;;
18520;SDS011;9390;51.244;6.982;2023-11-19T13:57:16;12.38;;;2.40;;
18520;SDS011;9390;51.244;6.982;2023-11-19T13:59:48;16.58;;;3.17;;
18520;SDS011;9390;51.244;6.982;2023-11-19T14:02:19;17.70;;;3.15;;
18520;SDS011;9390;51.244;6.982;2023-11-19T14:04:51;18.10;;;3.22;;
18520;SDS011;9390;51.244;6.982;2023-11-19T14:07:22;23.48;;;3.25;;
18520;SDS011;9390;51.244;6.982;2023-11-19T14:09:53;17.75;;;3.13;;
18520;SDS011;9390;51.244;6.982;2023-11-19T14:12:26;20.80;;;3.42;;
18520;SDS011;9390;51.244;6.982;2023-11-19T14:14:58;14.93;;;4.43;;
18520;SDS011;9390;51.244;6.982;2023-11-19T14:17:29;12.25;;;2.80;;
18520;SDS011;9390;51.244;6.982;2023-11-19T14:20:01;20.77;;;3.10;;
18520;SDS011;9390;51.244;6.982;2023-11-19T14:22:34;14.60;;;2.67;;
18520;SDS011;9390;51.244;6.982;2023-11-19T14:25:06;19.38;;;3.17;;
18520;SDS011;9390;51.244;6.982;2023-11-19T14:27:41;23.92;;;4.32;;
18520;SDS011;9390;51.244;6.982;2023-11-19T14:30:13;13.02;;;3.50;;
18520;SDS011;9390;51.244;6.982;2023-11-19T14:32:46;17.80;;;3.00;;
18520;SDS011;9390;51.244;6.982;2023-11-19T14:35:19;16.48;;;2.45;;
18520;SDS011;9390;51.244;6.982;2023-11-19T14:37:51;17.58;;;2.80;;
18520;SDS011;9390;51.244;6.982;2023-11-19T14:40:23;18.98;;;2.85;;
18520;SDS011;9390;51.244;6.982;2023-11-19T14:42:55;12.35;;;2.28;;
18520;SDS011;9390;51.244;6.982;2023-11-19T14:45:28;19.63;;;2.97;;
18520;SDS011;9390;51.244;6.982;2023-11-19T14:48:00;22.33;;;3.38;;
18520;SDS011;9390;51.244;6.982;2023-11-19T14:50:31;12.68;;;2.83;;
18520;SDS011;9390;51.244;6.982;2023-11-19T14:53:02;20.17;;;3.05;;
18520;SDS011;9390;51.244;6.982;2023-11-19T14:55:34;13.45;;;3.13;;
18520;SDS011;9390;51.244;6.982;2023-11-19T14:58:07;17.60;;;3.38;;
18520;SDS011;9390;51.244;6.982;2023-11-19T15:00:40;16.83;;;3.30;;
18520;SDS011;9390;51.244;6.982;2023-11-19T15:03:12;19.15;;;2.97;;
18520;SDS011;9390;51.244;6.982;2023-11-19T15:05:44;21.38;;;3.10;;
18520;SDS011;9390;51.244;6.982;2023-11-19T15:08:16;20.67;;;4.07;;
18520;SDS011;9390;51.244;6.982;2023-11-19T15:10:47;18.10;;;2.75;;
18520;SDS011;9390;51.244;6.982;2023-11-19T15:13:20;16.38;;;3.20;;
18520;SDS011;9390;51.244;6.982;2023-11-19T15:15:53;19.35;;;3.50;;
18520;SDS011;9390;51.244;6.982;2023-11-19T15:18:25;16.25;;;2.95;;
18520;SDS011;9390;51.244;6.982;2023-11-19T15:20:57;19.27;;;3.42;;
18520;SDS011;9390;51.244;6.982;2023-11-19T15:23:29;25.65;;;3.92;;
18520;SDS011;9390;51.244;6.982;2023-11-19T15:26:00;18.88;;;3.08;;
18520;SDS011;9390;51.244;6.982;2023-11-19T15:28:33;21.83;;;2.95;;
18520;SDS011;9390;51.244;6.982;2023-11-19T15:31:05;18.38;;;3.38;;
18520;SDS011;9390;51.244;6.982;2023-11-19T15:33:37;17.85;;;2.80;;
18520;SDS011;9390;51.244;6.982;2023-11-19T15:36:09;20.17;;;3.38;;
18520;SDS011;9390;51.244;6.982;2023-11-19T15:38:40;18.40;;;3.92;;
18520;SDS011;9390;51.244;6.982;2023-11-19T15:41:14;22.83;;;3.47;;
18520;SDS011;9390;51.244;6.982;2023-11-19T15:43:47;14.50;;;2.80;;
18520;SDS011;9390;51.244;6.982;2023-11-19T15:48:50;17.80;;;2.90;;